Time;durP1;ratioP1;P1;durP2;ratioP2;P2;SDS_P1;SDS_P2;PMS_P1;PMS_P2;Temp;Humidity;BMP_temperature;BMP_pressure;BME280_temperature;BME280_humidity;BME280_pressure;Samples;Min_cycle;Max_cycle;Signal;HPM_P1;HPM_P2
2023/09/27 00:02:22;;;;;;;23.27;18.08;;;14.80;99.90;;;;;;4998638;28;20445;-74
2023/09/27 00:04:48;;;;;;;19.92;16.75;;;14.80;99.90;;;;;;4994667;28;20545;-75
2023/09/27 00:07:13;;;;;;;22.50;17.48;;;14.80;99.90;;;;;;4994177;28;20188;-74
2023/09/27 00:09:39;;;;;;;20.45;15.40;;;14.70;99.90;;;;;;4996421;28;20176;-75
2023/09/27 00:12:05;;;;;;;20.67;16.77;;;14.70;99.90;;;;;;5013705;28;20041;-75
2023/09/27 00:14:34;;;;;;;21.20;16.33;;;14.70;99.90;;;;;;5015127;28;20048;-75
2023/09/27 00:16:59;;;;;;;19.50;16.23;;;14.70;99.90;;;;;;5015301;28;20041;-75
2023/09/27 00:19:25;;;;;;;20.27;15.93;;;14.70;99.90;;;;;;5014601;28;20048;-75
2023/09/27 00:21:51;;;;;;;19.90;16.58;;;14.70;99.90;;;;;;5013007;28;20046;-75
2023/09/27 00:24:20;;;;;;;21.27;17.23;;;14.70;99.90;;;;;;5015462;28;20053;-75
2023/09/27 00:26:45;;;;;;;21.48;16.30;;;14.60;99.90;;;;;;5011885;28;20056;-75
2023/09/27 00:29:11;;;;;;;20.83;16.45;;;14.70;99.90;;;;;;5014300;28;20045;-75
2023/09/27 00:31:37;;;;;;;20.88;16.52;;;14.60;99.90;;;;;;5014051;28;20084;-75
2023/09/27 00:34:02;;;;;;;20.48;17.15;;;14.60;99.90;;;;;;5013672;28;20133;-75
2023/09/27 00:36:28;;;;;;;20.38;16.45;;;14.60;99.90;;;;;;5012864;28;20128;-75
2023/09/27 00:38:54;;;;;;;19.65;16.23;;;14.60;99.90;;;;;;5012932;28;20050;-75
2023/09/27 00:41:20;;;;;;;22.88;16.73;;;14.60;99.90;;;;;;5013183;28;20045;-75
2023/09/27 00:43:45;;;;;;;19.88;16.35;;;14.60;99.90;;;;;;5013726;28;20053;-75
2023/09/27 00:46:14;;;;;;;20.23;16.70;;;14.60;99.90;;;;;;5014447;28;20129;-75
2023/09/27 00:48:39;;;;;;;22.02;15.88;;;14.60;99.90;;;;;;5012556;28;20112;-75
2023/09/27 00:51:05;;;;;;;21.13;16.92;;;14.60;99.90;;;;;;5013433;28;20046;-75
2023/09/27 00:53:36;;;;;;;19.92;16.90;;;14.60;99.90;;;;;;5013360;28;20041;-75
2023/09/27 00:56:01;;;;;;;20.45;16.30;;;14.60;99.90;;;;;;4993458;28;20042;-75
2023/09/27 00:58:30;;;;;;;24.65;17.52;;;14.60;99.90;;;;;;4994182;28;20505;-75
2023/09/27 01:00:58;;;;;;;21.52;17.05;;;14.70;99.90;;;;;;4993946;28;20038;-75
2023/09/27 01:03:23;;;;;;;19.55;15.40;;;14.70;99.90;;;;;;4998978;28;20104;-75
2023/09/27 01:05:49;;;;;;;20.42;16.77;;;14.80;99.90;;;;;;5012788;28;20041;-75
2023/09/27 01:08:15;;;;;;;23.05;16.25;;;14.80;99.90;;;;;;5013410;28;20045;-75
2023/09/27 01:10:41;;;;;;;19.38;16.25;;;14.80;99.90;;;;;;5012465;28;20073;-75
2023/09/27 01:13:07;;;;;;;20.42;17.05;;;14.90;99.90;;;;;;5003611;28;20068;-75
2023/09/27 01:15:33;;;;;;;21.45;17.27;;;14.90;99.90;;;;;;5013133;28;20045;-75
2023/09/27 01:18:00;;;;;;;21.98;17.10;;;14.80;99.90;;;;;;5012147;28;20111;-75
2023/09/27 01:20:28;;;;;;;18.98;16.10;;;14.80;99.90;;;;;;5013421;28;20133;-75
2023/09/27 01:23:03;;;;;;;20.30;16.15;;;14.80;99.90;;;;;;5011675;28;20061;-75
2023/09/27 01:25:29;;;;;;;19.60;16.52;;;14.70;99.90;;;;;;5012059;28;20048;-75
2023/09/27 01:27:57;;;;;;;22.40;16.75;;;14.70;99.90;;;;;;5012620;28;20061;-75
2023/09/27 01:30:25;;;;;;;21.20;16.92;;;14.60;99.90;;;;;;5012235;28;20046;-75
2023/09/27 01:32:51;;;;;;;22.63;17.40;;;14.60;99.90;;;;;;5012530;28;20050;-75
2023/09/27 01:35:17;;;;;;;22.15;17.02;;;14.60;99.90;;;;;;5014420;28;20112;-75
2023/09/27 01:37:43;;;;;;;21.50;17.15;;;14.60;99.90;;;;;;5010230;28;20557;-75
2023/09/27 01:40:17;;;;;;;20.08;17.15;;;14.60;99.90;;;;;;5012721;28;20493;-75
2023/09/27 01:42:43;;;;;;;19.77;16.67;;;14.60;99.90;;;;;;5013015;28;20064;-75
2023/09/27 01:45:12;;;;;;;23.23;17.38;;;14.50;99.90;;;;;;5011202;28;20119;-75
2023/09/27 01:47:38;;;;;;;17.80;15.90;;;14.50;99.90;;;;;;5012253;28;20046;-75
2023/09/27 01:50:07;;;;;;;23.30;17.88;;;14.40;99.90;;;;;;5012123;28;20060;-75
2023/09/27 01:52:33;;;;;;;20.98;16.67;;;14.40;99.90;;;;;;5012103;28;20050;-75
2023/09/27 01:55:01;;;;;;;21.23;17.15;;;14.40;99.90;;;;;;5012208;28;20496;-75
2023/09/27 01:57:27;;;;;;;20.10;16.73;;;14.30;99.90;;;;;;5002215;28;20042;-75
2023/09/27 01:59:52;;;;;;;21.00;17.30;;;14.30;99.90;;;;;;4991864;28;20126;-75
2023/09/27 02:02:18;;;;;;;21.20;16.70;;;14.30;99.90;;;;;;4992597;28;20054;-75
2023/09/27 02:04:43;;;;;;;20.48;17.00;;;14.20;99.90;;;;;;4993514;28;20453;-75
2023/09/27 02:07:09;;;;;;;21.75;17.05;;;14.20;99.90;;;;;;5000144;28;20133;-75
2023/09/27 02:09:35;;;;;;;20.70;17.10;;;14.20;99.90;;;;;;4996121;28;20042;-75
2023/09/27 02:12:00;;;;;;;20.15;17.30;;;14.20;99.90;;;;;;5013203;28;20506;-75
2023/09/27 02:14:26;;;;;;;22.75;17.42;;;14.20;99.90;;;;;;5012318;28;20078;-75
2023/09/27 02:16:52;;;;;;;20.50;16.80;;;14.10;99.90;;;;;;5011743;28;20065;-75
2023/09/27 02:19:20;;;;;;;19.08;16.67;;;14.20;99.90;;;;;;5011973;28;20049;-75
2023/09/27 02:21:45;;;;;;;24.15;17.83;;;14.20;99.90;;;;;;5011356;28;20042;-75
2023/09/27 02:24:11;;;;;;;24.48;17.20;;;14.20;99.90;;;;;;5013271;28;20128;-75
2023/09/27 02:26:37;;;;;;;24.02;17.95;;;14.20;99.90;;;;;;5011122;28;20099;-75
2023/09/27 02:29:03;;;;;;;18.95;16.48;;;14.10;99.90;;;;;;5011777;28;20042;-75
2023/09/27 02:31:29;;;;;;;23.30;17.27;;;14.00;99.90;;;;;;5011914;28;20038;-75
2023/09/27 02:33:55;;;;;;;23.83;17.48;;;14.00;99.90;;;;;;5010661;28;20191;-74
2023/09/27 02:36:20;;;;;;;23.05;17.15;;;14.00;99.90;;;;;;5011888;28;20136;-75
2023/09/27 02:38:46;;;;;;;21.02;17.48;;;13.90;99.90;;;;;;5011901;28;20449;-75
2023/09/27 02:41:13;;;;;;;19.92;16.70;;;13.90;99.90;;;;;;5011264;28;20045;-75
2023/09/27 02:43:40;;;;;;;22.52;16.70;;;13.90;99.90;;;;;;5011976;28;20046;-75
2023/09/27 02:46:09;;;;;;;24.98;18.08;;;13.80;99.90;;;;;;5011886;28;20132;-75
2023/09/27 02:48:35;;;;;;;19.70;17.00;;;13.80;99.90;;;;;;5011042;28;20133;-74
2023/09/27 02:51:01;;;;;;;22.17;18.48;;;13.80;99.90;;;;;;5010406;28;20477;-75
2023/09/27 02:53:27;;;;;;;25.25;19.38;;;13.80;99.90;;;;;;5012817;28;20060;-74
2023/09/27 02:55:53;;;;;;;23.52;18.45;;;13.80;99.90;;;;;;5011051;28;20050;-75
2023/09/27 02:58:18;;;;;;;20.63;17.40;;;13.80;99.90;;;;;;5011399;28;20042;-74
2023/09/27 03:00:48;;;;;;;21.65;18.48;;;13.80;99.90;;;;;;5011697;28;20493;-75
2023/09/27 03:03:19;;;;;;;22.17;18.10;;;13.80;99.90;;;;;;5016296;28;20062;-75
2023/09/27 03:05:45;;;;;;;21.45;18.02;;;13.80;99.90;;;;;;5019096;28;20137;-74
2023/09/27 03:08:10;;;;;;;22.42;18.42;;;13.80;99.90;;;;;;5018186;28;20145;-74
2023/09/27 03:10:38;;;;;;;25.48;19.42;;;13.70;99.90;;;;;;5017498;28;20108;-75
2023/09/27 03:13:04;;;;;;;21.40;17.67;;;13.80;99.90;;;;;;5019405;28;20042;-74
2023/09/27 03:15:31;;;;;;;23.88;18.67;;;13.70;99.90;;;;;;5011250;28;20379;-75
2023/09/27 03:17:57;;;;;;;24.60;18.90;;;13.70;99.90;;;;;;5008512;28;20046;-75
2023/09/27 03:20:22;;;;;;;24.05;19.25;;;13.70;99.90;;;;;;5019508;28;20092;-75
2023/09/27 03:22:49;;;;;;;23.00;19.63;;;13.70;99.90;;;;;;5017810;28;20104;-74
2023/09/27 03:25:18;;;;;;;21.98;19.30;;;13.60;99.90;;;;;;5018270;28;20481;-74
2023/09/27 03:27:44;;;;;;;23.67;19.15;;;13.70;99.90;;;;;;5017714;28;20092;-76
2023/09/27 03:30:10;;;;;;;23.75;19.10;;;13.70;99.90;;;;;;5011769;28;20042;-75
2023/09/27 03:32:36;;;;;;;24.48;19.65;;;13.70;99.90;;;;;;4998408;28;20065;-75
2023/09/27 03:35:02;;;;;;;23.25;18.85;;;13.70;99.90;;;;;;4999500;28;20046;-75
2023/09/27 03:37:28;;;;;;;27.60;20.15;;;13.70;99.90;;;;;;4997891;28;20101;-75
2023/09/27 03:39:55;;;;;;;25.20;19.33;;;13.60;99.90;;;;;;5002233;28;20073;-75
2023/09/27 03:42:22;;;;;;;25.83;18.38;;;13.60;99.90;;;;;;5019277;28;20476;-75
2023/09/27 03:44:56;;;;;;;25.10;19.42;;;13.60;99.90;;;;;;5015009;28;20490;-75
2023/09/27 03:47:22;;;;;;;25.95;19.27;;;13.70;99.90;;;;;;5017937;28;20045;-75
2023/09/27 03:49:49;;;;;;;24.00;18.50;;;13.50;99.90;;;;;;5017565;28;20477;-74
2023/09/27 03:52:14;;;;;;;25.38;19.48;;;13.50;99.90;;;;;;5017286;28;20046;-75
2023/09/27 03:54:40;;;;;;;25.42;20.98;;;13.40;99.90;;;;;;5017751;28;20371;-75
2023/09/27 03:57:06;;;;;;;24.58;19.70;;;13.50;99.90;;;;;;5016552;28;20599;-75
2023/09/27 03:59:31;;;;;;;27.88;18.77;;;13.40;99.90;;;;;;5007680;28;20038;-75
2023/09/27 04:01:57;;;;;;;25.75;19.83;;;13.40;99.90;;;;;;5018564;28;20046;-75
2023/09/27 04:04:22;;;;;;;23.35;18.90;;;13.40;99.90;;;;;;5017109;28;20489;-75
2023/09/27 04:06:49;;;;;;;28.15;20.58;;;13.30;99.90;;;;;;5017820;28;20089;-75
2023/09/27 04:09:15;;;;;;;27.38;19.73;;;13.30;99.90;;;;;;5017560;28;20069;-75
2023/09/27 04:11:43;;;;;;;24.08;20.40;;;13.30;99.90;;;;;;5019193;28;20092;-75
2023/09/27 04:14:09;;;;;;;26.15;20.75;;;13.30;99.90;;;;;;5007201;28;20049;-74
2023/09/27 04:16:34;;;;;;;27.60;21.67;;;13.30;99.90;;;;;;5004588;28;20038;-74
2023/09/27 04:19:00;;;;;;;26.65;21.67;;;13.30;99.90;;;;;;4994256;28;20484;-74
2023/09/27 04:21:26;;;;;;;26.92;21.13;;;13.30;99.90;;;;;;4994050;28;20433;-74
2023/09/27 04:23:59;;;;;;;27.67;21.92;;;13.30;99.90;;;;;;4994422;28;20042;-74
2023/09/27 04:26:26;;;;;;;28.77;22.13;;;13.30;99.90;;;;;;5010336;28;20052;-74
2023/09/27 04:28:53;;;;;;;26.50;20.95;;;13.30;99.90;;;;;;5002287;28;20038;-74
2023/09/27 04:31:19;;;;;;;27.02;21.00;;;13.30;99.90;;;;;;4995235;28;20081;-74
2023/09/27 04:33:47;;;;;;;30.42;21.67;;;13.30;99.90;;;;;;5013577;28;20392;-74
2023/09/27 04:36:17;;;;;;;25.63;20.98;;;13.20;99.90;;;;;;5015428;28;20555;-74
2023/09/27 04:38:46;;;;;;;28.55;21.73;;;13.20;99.90;;;;;;5014122;28;20103;-74
2023/09/27 04:41:17;;;;;;;26.55;21.42;;;13.20;99.90;;;;;;5002049;28;20399;-75
2023/09/27 04:43:43;;;;;;;28.55;22.15;;;13.20;99.90;;;;;;4995832;28;20496;-76
2023/09/27 04:46:17;;;;;;;29.25;22.02;;;13.20;99.90;;;;;;4994061;28;20038;-75
2023/09/27 04:48:44;;;;;;;29.55;21.83;;;13.20;99.90;;;;;;4994445;28;20505;-74
2023/09/27 04:51:09;;;;;;;31.67;22.73;;;13.20;99.90;;;;;;4993936;28;20035;-74
2023/09/27 04:53:37;;;;;;;29.70;23.10;;;13.10;99.90;;;;;;4994126;28;20050;-73
2023/09/27 04:56:07;;;;;;;34.40;24.08;;;13.10;99.90;;;;;;5004897;28;20557;-73
2023/09/27 04:58:33;;;;;;;36.25;23.50;;;13.10;99.90;;;;;;5013742;28;20045;-73
2023/09/27 05:00:59;;;;;;;36.35;26.00;;;13.10;99.90;;;;;;5013582;28;20413;-74
2023/09/27 05:03:26;;;;;;;32.63;24.48;;;13.10;99.90;;;;;;5012177;28;20072;-76
2023/09/27 05:05:52;;;;;;;31.35;24.55;;;13.10;99.90;;;;;;5006646;28;20089;-71
2023/09/27 05:08:17;;;;;;;33.70;24.95;;;13.20;99.90;;;;;;4995354;28;20141;-73
2023/09/27 05:10:43;;;;;;;30.77;23.95;;;13.10;99.90;;;;;;4993166;28;20121;-80
2023/09/27 05:13:09;;;;;;;29.40;22.92;;;13.20;99.90;;;;;;4996825;28;20046;-79
2023/09/27 05:15:34;;;;;;;31.85;23.58;;;13.10;99.90;;;;;;5013718;28;20092;-75
2023/09/27 05:18:00;;;;;;;35.90;25.17;;;13.00;99.90;;;;;;5014137;28;20119;-79
2023/09/27 05:20:26;;;;;;;34.83;25.00;;;13.00;99.90;;;;;;5014299;28;20096;-76
2023/09/27 05:22:51;;;;;;;35.17;26.08;;;13.10;99.90;;;;;;5012908;28;20046;-74
2023/09/27 05:25:17;;;;;;;32.60;25.60;;;13.10;99.90;;;;;;4996208;28;20050;-73
2023/09/27 05:27:43;;;;;;;35.17;26.33;;;13.10;99.90;;;;;;4993067;28;20451;-78
2023/09/27 05:30:13;;;;;;;33.85;25.30;;;13.00;99.90;;;;;;5005234;28;20545;-76
2023/09/27 05:32:40;;;;;;;36.10;24.95;;;13.00;99.90;;;;;;5013074;28;20073;-76
2023/09/27 05:35:06;;;;;;;40.10;28.77;;;13.00;99.90;;;;;;5013295;28;20126;-72
2023/09/27 05:37:32;;;;;;;40.72;27.83;;;13.00;99.90;;;;;;5012283;28;20054;-73
2023/09/27 05:39:58;;;;;;;36.20;27.77;;;13.00;99.90;;;;;;5012301;28;20389;-74
2023/09/27 05:42:23;;;;;;;36.92;26.70;;;13.10;99.90;;;;;;5002044;28;20037;-73
2023/09/27 05:44:49;;;;;;;34.42;24.95;;;13.10;99.90;;;;;;5001517;28;20393;-74
2023/09/27 05:47:15;;;;;;;38.58;27.00;;;13.10;99.90;;;;;;5008355;28;20108;-74
2023/09/27 05:49:42;;;;;;;33.35;25.45;;;13.10;99.90;;;;;;4995598;28;20138;-73
2023/09/27 05:52:12;;;;;;;33.80;25.02;;;13.10;99.90;;;;;;4994592;28;20062;-74
2023/09/27 05:54:41;;;;;;;34.33;25.48;;;13.20;99.90;;;;;;4995705;28;20046;-74
2023/09/27 05:57:07;;;;;;;37.08;27.33;;;13.30;99.90;;;;;;4994200;28;20038;-74
2023/09/27 05:59:40;;;;;;;36.30;25.95;;;13.30;99.90;;;;;;4998833;28;20046;-74
2023/09/27 06:02:06;;;;;;;34.13;25.95;;;13.40;99.90;;;;;;5009851;28;20846;-74
2023/09/27 06:04:33;;;;;;;36.30;26.67;;;13.40;99.90;;;;;;5007287;28;20455;-75
2023/09/27 06:06:58;;;;;;;34.75;25.50;;;13.40;99.90;;;;;;4994706;28;20129;-74
2023/09/27 06:09:24;;;;;;;38.60;26.85;;;13.40;99.90;;;;;;4995263;28;20161;-74
2023/09/27 06:11:51;;;;;;;36.72;27.45;;;13.40;99.90;;;;;;4994477;28;20046;-75
2023/09/27 06:14:16;;;;;;;39.28;26.85;;;13.40;99.90;;;;;;4995199;28;20034;-74
2023/09/27 06:16:44;;;;;;;39.38;27.88;;;13.60;99.90;;;;;;5001172;28;20112;-75
2023/09/27 06:19:11;;;;;;;40.33;28.88;;;13.70;99.90;;;;;;5009754;28;20042;-75
2023/09/27 06:21:37;;;;;;;41.22;28.52;;;13.70;99.90;;;;;;5011073;28;20037;-75
2023/09/27 06:24:05;;;;;;;38.38;27.08;;;13.70;99.90;;;;;;5010533;28;20133;-75
2023/09/27 06:26:31;;;;;;;37.55;25.45;;;14.00;99.90;;;;;;5006273;28;20045;-76
2023/09/27 06:28:57;;;;;;;40.05;25.95;;;14.00;99.90;;;;;;5010248;28;20448;-75
2023/09/27 06:31:23;;;;;;;42.00;28.92;;;14.10;99.90;;;;;;5010772;28;20096;-75
2023/09/27 06:33:49;;;;;;;40.63;29.00;;;14.20;99.90;;;;;;5009902;28;20034;-75
2023/09/27 06:36:16;;;;;;;39.75;28.80;;;14.20;99.90;;;;;;5005112;28;20508;-76
2023/09/27 06:38:42;;;;;;;38.78;28.98;;;14.30;99.90;;;;;;4994560;28;20042;-76
2023/09/27 06:41:08;;;;;;;40.78;28.50;;;14.40;99.90;;;;;;4993874;28;20034;-76
2023/09/27 06:43:34;;;;;;;44.80;31.30;;;14.50;99.90;;;;;;5006888;28;20068;-75
2023/09/27 06:46:07;;;;;;;43.38;30.75;;;14.60;99.90;;;;;;5010211;28;20037;-76
2023/09/27 06:48:33;;;;;;;41.70;29.63;;;14.60;99.90;;;;;;5002552;28;20046;-76
2023/09/27 06:50:58;;;;;;;41.58;29.65;;;14.70;99.90;;;;;;5006050;28;20038;-76
2023/09/27 06:53:24;;;;;;;39.00;29.60;;;14.80;99.90;;;;;;4999726;28;20057;-76
2023/09/27 06:55:53;;;;;;;41.03;28.95;;;14.80;99.90;;;;;;5009652;28;20060;-75
2023/09/27 06:58:23;;;;;;;36.03;28.08;;;14.90;99.90;;;;;;5004324;28;20037;-75
2023/09/27 07:00:50;;;;;;;36.92;27.27;;;15.00;99.90;;;;;;4994573;28;20058;-74
2023/09/27 07:03:24;;;;;;;34.53;25.48;;;15.00;99.90;;;;;;4994061;28;20057;-73
2023/09/27 07:05:51;;;;;;;35.38;26.67;;;15.10;99.90;;;;;;4994600;28;20074;-74
2023/09/27 07:08:16;;;;;;;33.72;24.92;;;15.10;99.90;;;;;;4996125;28;20154;-75
2023/09/27 07:10:42;;;;;;;32.28;25.25;;;15.10;99.90;;;;;;5000016;28;20122;-76
2023/09/27 07:13:08;;;;;;;38.13;26.98;;;15.10;99.90;;;;;;5006435;28;20048;-74
2023/09/27 07:15:34;;;;;;;33.92;26.52;;;15.20;99.90;;;;;;5011718;28;20042;-77
2023/09/27 07:17:59;;;;;;;32.22;23.85;;;15.30;99.90;;;;;;5007681;28;20089;-74
2023/09/27 07:20:27;;;;;;;30.60;25.50;;;15.50;99.90;;;;;;5012201;28;20104;-73
2023/09/27 07:22:54;;;;;;;35.15;26.30;;;15.50;99.90;;;;;;4994005;28;20045;-73
2023/09/27 07:25:21;;;;;;;34.67;26.33;;;15.50;99.90;;;;;;4994558;28;20163;-71
2023/09/27 07:27:52;;;;;;;34.25;24.38;;;15.60;99.90;;;;;;4994142;28;20043;-73
2023/09/27 07:30:23;;;;;;;35.13;25.92;;;15.70;99.90;;;;;;4997669;28;20040;-72
2023/09/27 07:32:49;;;;;;;36.25;24.95;;;15.80;99.90;;;;;;5011190;28;20053;-73
2023/09/27 07:35:16;;;;;;;31.92;24.65;;;15.90;99.90;;;;;;5000501;28;20031;-73
2023/09/27 07:37:43;;;;;;;33.72;25.48;;;15.90;99.90;;;;;;5009371;28;20046;-73
2023/09/27 07:40:11;;;;;;;32.85;24.45;;;16.00;99.90;;;;;;5004226;28;20053;-73
2023/09/27 07:42:37;;;;;;;31.40;23.90;;;16.00;99.90;;;;;;4994372;28;20050;-72
2023/09/27 07:45:05;;;;;;;36.67;25.23;;;16.20;99.90;;;;;;5010860;28;20042;-72
2023/09/27 07:47:33;;;;;;;33.10;25.60;;;16.30;99.90;;;;;;4994482;28;20402;-72
2023/09/27 07:50:01;;;;;;;33.97;25.27;;;16.50;99.90;;;;;;5011544;28;20089;-72
2023/09/27 07:52:27;;;;;;;35.53;24.88;;;16.60;99.90;;;;;;5004591;28;20052;-72
2023/09/27 07:54:53;;;;;;;32.65;24.35;;;16.90;99.90;;;;;;5003177;28;20421;-73
2023/09/27 07:57:20;;;;;;;30.80;23.65;;;17.10;99.90;;;;;;5013355;28;20033;-73
2023/09/27 07:59:46;;;;;;;28.40;22.83;;;17.60;99.90;;;;;;5003955;28;20046;-72
2023/09/27 08:02:11;;;;;;;29.50;23.05;;;17.90;99.90;;;;;;4999264;28;20057;-72
2023/09/27 08:04:40;;;;;;;30.25;22.88;;;18.00;99.90;;;;;;4996801;28;20461;-73
2023/09/27 08:07:05;;;;;;;27.00;21.20;;;18.10;99.90;;;;;;4997137;28;20484;-72
2023/09/27 08:09:31;;;;;;;28.48;21.20;;;18.10;99.90;;;;;;4997275;28;20121;-72
2023/09/27 08:11:57;;;;;;;27.83;20.42;;;18.10;99.90;;;;;;4997150;28;20081;-72
2023/09/27 08:14:23;;;;;;;24.90;20.77;;;18.10;99.90;;;;;;4997768;28;20112;-73
2023/09/27 08:16:51;;;;;;;24.98;20.27;;;18.10;99.90;;;;;;4995400;28;20133;-70
2023/09/27 08:19:16;;;;;;;28.25;20.35;;;18.10;99.90;;;;;;4996826;28;20049;-70
2023/09/27 08:21:42;;;;;;;27.17;21.15;;;18.20;99.90;;;;;;4997179;28;20173;-69
2023/09/27 08:24:10;;;;;;;27.15;20.20;;;18.30;99.90;;;;;;5014721;28;20073;-70
2023/09/27 08:26:36;;;;;;;24.88;18.65;;;19.10;99.90;;;;;;5013909;28;20038;-72
2023/09/27 08:29:02;;;;;;;24.40;20.27;;;18.40;99.90;;;;;;4996797;28;20042;-73
2023/09/27 08:31:30;;;;;;;28.33;20.08;;;18.40;99.90;;;;;;4997428;28;20485;-73
2023/09/27 08:34:05;;;;;;;27.02;21.05;;;18.30;99.90;;;;;;4996114;28;20073;-73
2023/09/27 08:36:30;;;;;;;27.20;21.50;;;18.30;99.90;;;;;;4996898;28;20065;-72
2023/09/27 08:38:56;;;;;;;24.00;19.50;;;18.40;99.90;;;;;;4995461;28;20042;-73
2023/09/27 08:41:24;;;;;;;27.73;21.17;;;18.60;99.90;;;;;;4995241;28;20034;-72
2023/09/27 08:43:54;;;;;;;26.27;19.88;;;18.70;99.90;;;;;;4996061;28;20382;-71
2023/09/27 08:46:24;;;;;;;26.98;19.85;;;18.90;99.90;;;;;;4995877;28;20054;-72
2023/09/27 08:48:51;;;;;;;23.00;18.75;;;19.20;99.90;;;;;;5012722;28;20076;-72
2023/09/27 08:51:18;;;;;;;25.30;18.65;;;19.50;99.90;;;;;;4995736;28;20046;-71
2023/09/27 08:53:43;;;;;;;25.13;18.27;;;19.50;99.90;;;;;;4995191;28;20052;-72
2023/09/27 08:56:14;;;;;;;23.83;17.63;;;19.40;99.90;;;;;;4996095;28;20041;-72
2023/09/27 08:58:40;;;;;;;24.95;18.73;;;19.50;99.90;;;;;;4998155;28;20461;-72
2023/09/27 09:01:07;;;;;;;27.40;19.45;;;19.30;99.90;;;;;;4995633;28;20112;-71
2023/09/27 09:03:33;;;;;;;25.35;18.85;;;19.30;99.90;;;;;;5005281;28;20081;-72
2023/09/27 09:06:00;;;;;;;28.35;20.10;;;19.30;99.90;;;;;;5012967;28;20473;-72
2023/09/27 09:08:26;;;;;;;25.42;18.63;;;19.30;99.90;;;;;;4995188;28;20053;-72
2023/09/27 09:10:55;;;;;;;26.25;18.67;;;19.40;99.90;;;;;;4995175;28;20030;-73
2023/09/27 09:13:22;;;;;;;28.52;19.58;;;19.50;99.90;;;;;;5003509;28;20386;-72
2023/09/27 09:15:49;;;;;;;26.70;17.33;;;19.50;99.90;;;;;;5006257;28;20052;-72
2023/09/27 09:18:33;;;;;;;22.95;17.92;;;19.50;99.90;;;;;;4993486;28;20058;-73
2023/09/27 09:21:08;;;;;;;24.40;18.33;;;19.30;99.90;;;;;;5005727;28;20124;-73
2023/09/27 09:23:38;;;;;;;25.08;18.45;;;19.30;99.90;;;;;;5010428;28;20049;-73
2023/09/27 09:26:05;;;;;;;25.90;18.45;;;19.20;99.90;;;;;;5005365;28;20050;-73
2023/09/27 09:28:31;;;;;;;25.33;18.20;;;19.20;99.90;;;;;;4995113;28;20046;-73
2023/09/27 09:30:57;;;;;;;26.95;18.42;;;19.40;99.90;;;;;;4995118;28;20045;-73
2023/09/27 09:33:28;;;;;;;23.95;18.02;;;19.60;99.90;;;;;;4993680;28;20543;-73
2023/09/27 09:35:55;;;;;;;27.10;18.45;;;19.60;99.90;;;;;;4997301;28;20057;-74
2023/09/27 09:38:26;;;;;;;26.83;18.70;;;19.50;99.90;;;;;;5001157;28;20038;-73
2023/09/27 09:40:52;;;;;;;23.27;18.25;;;19.50;99.90;;;;;;5012192;28;20050;-73
2023/09/27 09:43:33;;;;;;;25.73;19.63;;;19.50;99.90;;;;;;5010000;28;20045;-73
2023/09/27 09:46:00;;;;;;;25.05;19.08;;;19.60;99.90;;;;;;5010313;28;20054;-72
2023/09/27 09:48:27;;;;;;;25.50;17.35;;;19.60;99.90;;;;;;5010464;28;20046;-72
2023/09/27 09:51:03;;;;;;;27.90;19.02;;;19.50;99.90;;;;;;5009248;28;20041;-72
2023/09/27 09:53:29;;;;;;;30.20;20.48;;;19.50;99.90;;;;;;5000578;28;20042;-72
2023/09/27 09:55:57;;;;;;;21.73;18.17;;;19.50;99.90;;;;;;5002402;28;20045;-72
2023/09/27 09:58:38;;;;;;;25.77;18.58;;;19.50;99.90;;;;;;5009609;28;20053;-72
2023/09/27 10:01:04;;;;;;;25.75;19.48;;;19.40;99.90;;;;;;4997617;28;20041;-72
2023/09/27 10:03:33;;;;;;;25.48;18.00;;;19.30;99.90;;;;;;4994315;28;20046;-72
2023/09/27 10:06:04;;;;;;;25.30;18.55;;;19.30;99.90;;;;;;4993289;28;20052;-73
2023/09/27 10:08:34;;;;;;;28.95;19.67;;;19.30;99.90;;;;;;4994792;28;20042;-72
2023/09/27 10:11:04;;;;;;;25.13;18.80;;;19.30;99.90;;;;;;4993736;28;20056;-73
2023/09/27 10:13:35;;;;;;;23.67;16.23;;;19.30;99.90;;;;;;5010041;28;20049;-72
2023/09/27 10:16:04;;;;;;;25.67;18.95;;;19.30;99.90;;;;;;5012202;28;20436;-73
2023/09/27 10:18:36;;;;;;;25.05;18.17;;;19.40;99.90;;;;;;5011252;28;20052;-72
2023/09/27 10:21:03;;;;;;;24.52;17.75;;;19.40;99.90;;;;;;5011838;28;20060;-73
2023/09/27 10:23:47;;;;;;;23.75;16.95;;;19.40;99.90;;;;;;5011991;28;20056;-72
2023/09/27 10:26:28;;;;;;;23.50;16.58;;;19.50;99.90;;;;;;4996825;28;20099;-72
2023/09/27 10:29:06;;;;;;;24.75;17.25;;;19.70;99.90;;;;;;4997541;28;20050;-73
2023/09/27 10:31:33;;;;;;;23.63;17.52;;;19.90;99.90;;;;;;4999314;28;20046;-72
2023/09/27 10:33:59;;;;;;;25.63;17.80;;;20.20;99.90;;;;;;5009118;28;20153;-72
2023/09/27 10:36:24;;;;;;;28.73;18.23;;;20.50;99.90;;;;;;5010038;28;20046;-72
2023/09/27 10:38:50;;;;;;;24.58;17.77;;;20.70;99.90;;;;;;5009676;28;20053;-72
2023/09/27 10:41:46;;;;;;;24.65;17.42;;;20.80;99.90;;;;;;5009095;28;20065;-72
2023/09/27 10:44:25;;;;;;;22.13;16.38;;;21.00;99.90;;;;;;4979846;28;20064;-73
2023/09/27 10:46:51;;;;;;;27.30;18.40;;;21.10;99.90;;;;;;5005178;28;20089;-72
2023/09/27 10:49:39;;;;;;;20.10;14.73;;;21.20;99.90;;;;;;5006732;28;20042;-73
2023/09/27 10:52:18;;;;;;;21.20;15.52;;;22.00;99.90;;;;;;4997718;28;20142;-73
2023/09/27 10:54:44;;;;;;;21.27;15.15;;;22.70;99.90;;;;;;5007676;28;20042;-72
2023/09/27 10:57:09;;;;;;;20.40;13.82;;;22.60;99.90;;;;;;5011427;28;20489;-73
2023/09/27 10:59:35;;;;;;;23.40;15.07;;;22.40;99.90;;;;;;5011717;28;20060;-73
2023/09/27 11:02:04;;;;;;;20.88;14.05;;;22.30;99.90;;;;;;5004045;28;20046;-73
2023/09/27 11:04:32;;;;;;;23.65;14.98;;;22.40;99.90;;;;;;4997796;28;20133;-72
2023/09/27 11:07:00;;;;;;;20.33;14.52;;;22.70;99.90;;;;;;5003980;28;20054;-73
2023/09/27 11:09:27;;;;;;;18.65;13.98;;;23.10;99.90;;;;;;5001600;28;20050;-78
2023/09/27 11:11:54;;;;;;;23.60;15.32;;;22.90;99.90;;;;;;5010399;28;20057;-72
2023/09/27 11:14:31;;;;;;;21.42;14.80;;;22.50;99.90;;;;;;5002924;28;20050;-73
2023/09/27 11:17:17;;;;;;;19.65;14.60;;;22.60;99.90;;;;;;4997719;28;20049;-73
2023/09/27 11:19:42;;;;;;;18.30;13.98;;;22.90;99.90;;;;;;4999479;28;20050;-72
2023/09/27 11:22:08;;;;;;;21.17;14.15;;;22.70;99.90;;;;;;5011130;28;20095;-71
2023/09/27 11:24:40;;;;;;;21.80;14.88;;;22.40;99.90;;;;;;5014704;28;20030;-73
2023/09/27 11:27:12;;;;;;;19.42;14.88;;;22.10;99.90;;;;;;5001078;28;20046;-74
2023/09/27 11:29:37;;;;;;;19.98;13.70;;;22.00;99.90;;;;;;5005226;28;20054;-75
2023/09/27 11:32:06;;;;;;;17.58;13.32;;;22.70;99.90;;;;;;5004735;28;20045;-73
2023/09/27 11:34:32;;;;;;;22.80;13.70;;;24.10;99.90;;;;;;5013254;28;20038;-72
2023/09/27 11:37:00;;;;;;;19.23;13.63;;;25.20;99.90;;;;;;5005249;28;20387;-72
2023/09/27 11:39:47;;;;;;;16.95;12.38;;;25.60;99.90;;;;;;5014799;28;20038;-72
2023/09/27 11:42:13;;;;;;;18.15;12.48;;;25.20;99.90;;;;;;5009198;28;20058;-73
2023/09/27 11:44:38;;;;;;;18.83;13.07;;;24.70;99.90;;;;;;4999462;28;20517;-73
2023/09/27 11:47:06;;;;;;;19.73;12.50;;;24.50;99.90;;;;;;5002032;28;20050;-72
2023/09/27 11:49:33;;;;;;;18.73;12.90;;;25.10;99.90;;;;;;5013930;28;20493;-74
2023/09/27 11:52:01;;;;;;;17.33;12.68;;;26.20;99.90;;;;;;5013861;28;20474;-73
2023/09/27 11:54:27;;;;;;;16.23;11.88;;;27.10;99.90;;;;;;5015558;28;20045;-72
2023/09/27 11:56:53;;;;;;;14.63;11.07;;;28.00;99.90;;;;;;5014893;28;20132;-73
2023/09/27 11:59:19;;;;;;;14.73;10.38;;;28.50;99.90;;;;;;5015088;28;20138;-74
2023/09/27 12:01:45;;;;;;;15.18;10.23;;;28.70;99.90;;;;;;5014595;28;20045;-73
2023/09/27 12:04:10;;;;;;;16.85;10.30;;;28.70;99.90;;;;;;5013336;28;20057;-75
2023/09/27 12:06:37;;;;;;;15.25;10.18;;;28.80;99.50;;;;;;5004249;28;20039;-74
2023/09/27 12:09:05;;;;;;;14.90;9.68;;;28.90;99.30;;;;;;5014293;28;20065;-74
2023/09/27 12:11:31;;;;;;;14.35;9.85;;;29.00;99.10;;;;;;5015153;28;20489;-74
2023/09/27 12:13:57;;;;;;;14.40;9.32;;;28.90;99.50;;;;;;5014353;28;20053;-74
2023/09/27 12:16:24;;;;;;;14.25;8.48;;;29.00;98.50;;;;;;5014611;28;20061;-73
2023/09/27 12:18:50;;;;;;;12.13;8.25;;;29.00;98.10;;;;;;5011989;28;20073;-76
2023/09/27 12:21:15;;;;;;;13.23;8.73;;;28.90;98.30;;;;;;5003083;28;20485;-74
2023/09/27 12:23:43;;;;;;;13.18;8.27;;;29.10;98.70;;;;;;5015604;28;20045;-73
2023/09/27 12:26:09;;;;;;;13.48;7.82;;;29.40;98.40;;;;;;5004433;28;20397;-74
2023/09/27 12:28:37;;;;;;;12.30;7.88;;;29.50;98.10;;;;;;5012389;28;20057;-73
2023/09/27 12:31:06;;;;;;;12.07;7.70;;;29.60;97.70;;;;;;5008696;28;20046;-73